sensor_id;sensor_type;location;lat;lon;timestamp;P1;durP1;ratioP1;P2;durP2;ratioP2
84655;SDS011;76548;52.130;5.428;2024-03-02T00:00:05;1.30;;;0.70;;
84655;SDS011;76548;52.130;5.428;2024-03-02T00:02:43;0.80;;;0.50;;
84655;SDS011;76548;52.130;5.428;2024-03-02T00:05:11;1.77;;;0.75;;
84655;SDS011;76548;52.130;5.428;2024-03-02T00:07:42;3.30;;;0.90;;
84655;SDS011;76548;52.130;5.428;2024-03-02T00:10:11;1.60;;;0.70;;
84655;SDS011;76548;52.130;5.428;2024-03-02T00:12:39;1.25;;;0.57;;
84655;SDS011;76548;52.130;5.428;2024-03-02T00:15:28;2.17;;;0.70;;
84655;SDS011;76548;52.130;5.428;2024-03-02T00:17:59;1.20;;;0.50;;
84655;SDS011;76548;52.130;5.428;2024-03-02T00:20:28;2.57;;;0.83;;
84655;SDS011;76548;52.130;5.428;2024-03-02T00:23:09;1.52;;;0.82;;
84655;SDS011;76548;52.130;5.428;2024-03-02T00:25:46;2.58;;;0.52;;
84655;SDS011;76548;52.130;5.428;2024-03-02T00:28:16;2.75;;;0.50;;
84655;SDS011;76548;52.130;5.428;2024-03-02T00:30:55;1.23;;;0.50;;
84655;SDS011;76548;52.130;5.428;2024-03-02T00:33:26;1.43;;;0.50;;
84655;SDS011;76548;52.130;5.428;2024-03-02T00:35:55;2.22;;;0.90;;
84655;SDS011;76548;52.130;5.428;2024-03-02T00:38:23;2.33;;;0.60;;
84655;SDS011;76548;52.130;5.428;2024-03-02T00:40:51;1.45;;;1.20;;
84655;SDS011;76548;52.130;5.428;2024-03-02T00:46:10;2.00;;;1.33;;
84655;SDS011;76548;52.130;5.428;2024-03-02T00:48:39;2.28;;;1.75;;
84655;SDS011;76548;52.130;5.428;2024-03-02T00:51:07;4.93;;;3.58;;
84655;SDS011;76548;52.130;5.428;2024-03-02T00:53:38;3.78;;;3.15;;
84655;SDS011;76548;52.130;5.428;2024-03-02T00:56:08;3.92;;;3.53;;
84655;SDS011;76548;52.130;5.428;2024-03-02T00:58:37;4.83;;;3.90;;
84655;SDS011;76548;52.130;5.428;2024-03-02T01:01:05;5.25;;;4.50;;
84655;SDS011;76548;52.130;5.428;2024-03-02T01:03:34;5.93;;;5.38;;
84655;SDS011;76548;52.130;5.428;2024-03-02T01:06:02;9.18;;;8.30;;
84655;SDS011;76548;52.130;5.428;2024-03-02T01:08:30;9.20;;;8.30;;
84655;SDS011;76548;52.130;5.428;2024-03-02T01:10:58;16.03;;;13.10;;
84655;SDS011;76548;52.130;5.428;2024-03-02T01:13:26;11.90;;;10.70;;
84655;SDS011;76548;52.130;5.428;2024-03-02T01:15:54;9.52;;;8.63;;
84655;SDS011;76548;52.130;5.428;2024-03-02T01:18:22;12.40;;;10.15;;
84655;SDS011;76548;52.130;5.428;2024-03-02T01:20:50;26.50;;;20.17;;
84655;SDS011;76548;52.130;5.428;2024-03-02T01:23:19;9.07;;;8.13;;
84655;SDS011;76548;52.130;5.428;2024-03-02T01:25:47;18.42;;;13.50;;
84655;SDS011;76548;52.130;5.428;2024-03-02T01:28:14;11.18;;;8.48;;
84655;SDS011;76548;52.130;5.428;2024-03-02T01:30:42;22.98;;;13.80;;
84655;SDS011;76548;52.130;5.428;2024-03-02T01:33:11;6.03;;;4.53;;
84655;SDS011;76548;52.130;5.428;2024-03-02T01:35:39;4.80;;;4.00;;
84655;SDS011;76548;52.130;5.428;2024-03-02T01:38:07;3.42;;;2.85;;
84655;SDS011;76548;52.130;5.428;2024-03-02T01:40:35;2.75;;;2.25;;
84655;SDS011;76548;52.130;5.428;2024-03-02T01:43:04;2.35;;;2.08;;
84655;SDS011;76548;52.130;5.428;2024-03-02T01:45:32;1.40;;;1.05;;
84655;SDS011;76548;52.130;5.428;2024-03-02T01:48:00;1.50;;;1.00;;
84655;SDS011;76548;52.130;5.428;2024-03-02T01:50:29;2.13;;;1.40;;
84655;SDS011;76548;52.130;5.428;2024-03-02T01:52:57;1.50;;;1.25;;
84655;SDS011;76548;52.130;5.428;2024-03-02T01:55:26;1.30;;;1.00;;
84655;SDS011;76548;52.130;5.428;2024-03-02T01:57:56;1.27;;;1.00;;
84655;SDS011;76548;52.130;5.428;2024-03-02T02:00:25;1.90;;;1.10;;
84655;SDS011;76548;52.130;5.428;2024-03-02T02:02:54;2.30;;;1.63;;
84655;SDS011;76548;52.130;5.428;2024-03-02T02:05:22;2.95;;;2.60;;
84655;SDS011;76548;52.130;5.428;2024-03-02T02:07:50;3.45;;;3.15;;
84655;SDS011;76548;52.130;5.428;2024-03-02T02:10:18;3.95;;;3.47;;
84655;SDS011;76548;52.130;5.428;2024-03-02T02:12:46;5.03;;;4.03;;
84655;SDS011;76548;52.130;5.428;2024-03-02T02:17:51;5.93;;;4.50;;
84655;SDS011;76548;52.130;5.428;2024-03-02T02:20:18;9.15;;;6.32;;
84655;SDS011;76548;52.130;5.428;2024-03-02T02:22:56;24.90;;;15.23;;
84655;SDS011;76548;52.130;5.428;2024-03-02T02:25:24;34.60;;;16.40;;
84655;SDS011;76548;52.130;5.428;2024-03-02T02:27:52;16.27;;;10.75;;
84655;SDS011;76548;52.130;5.428;2024-03-02T02:30:27;6.65;;;5.95;;
84655;SDS011;76548;52.130;5.428;2024-03-02T02:32:56;4.68;;;4.18;;
84655;SDS011;76548;52.130;5.428;2024-03-02T02:35:24;4.10;;;3.70;;
84655;SDS011;76548;52.130;5.428;2024-03-02T02:37:52;5.60;;;5.10;;
84655;SDS011;76548;52.130;5.428;2024-03-02T02:40:21;8.00;;;5.20;;
84655;SDS011;76548;52.130;5.428;2024-03-02T02:42:49;4.90;;;4.40;;
84655;SDS011;76548;52.130;5.428;2024-03-02T02:45:19;4.47;;;4.00;;
84655;SDS011;76548;52.130;5.428;2024-03-02T02:47:48;3.60;;;3.30;;
84655;SDS011;76548;52.130;5.428;2024-03-02T02:50:16;7.60;;;6.17;;
84655;SDS011;76548;52.130;5.428;2024-03-02T02:52:44;4.13;;;3.20;;
84655;SDS011;76548;52.130;5.428;2024-03-02T02:55:13;1.63;;;1.42;;
84655;SDS011;76548;52.130;5.428;2024-03-02T02:57:43;1.88;;;1.20;;
84655;SDS011;76548;52.130;5.428;2024-03-02T03:00:12;4.18;;;1.45;;
84655;SDS011;76548;52.130;5.428;2024-03-02T03:02:46;1.60;;;1.13;;
84655;SDS011;76548;52.130;5.428;2024-03-02T03:05:16;2.03;;;1.30;;
84655;SDS011;76548;52.130;5.428;2024-03-02T03:07:44;5.15;;;4.75;;
84655;SDS011;76548;52.130;5.428;2024-03-02T03:10:12;8.18;;;6.95;;
84655;SDS011;76548;52.130;5.428;2024-03-02T03:12:42;6.88;;;6.15;;
84655;SDS011;76548;52.130;5.428;2024-03-02T03:15:11;10.63;;;8.83;;
84655;SDS011;76548;52.130;5.428;2024-03-02T03:17:40;9.65;;;8.70;;
84655;SDS011;76548;52.130;5.428;2024-03-02T03:20:08;15.93;;;12.30;;
84655;SDS011;76548;52.130;5.428;2024-03-02T03:22:39;5.90;;;5.43;;
84655;SDS011;76548;52.130;5.428;2024-03-02T03:25:07;1.95;;;1.75;;
84655;SDS011;76548;52.130;5.428;2024-03-02T03:27:36;7.87;;;7.17;;
84655;SDS011;76548;52.130;5.428;2024-03-02T03:30:04;3.33;;;3.03;;
84655;SDS011;76548;52.130;5.428;2024-03-02T03:32:34;3.33;;;3.00;;
84655;SDS011;76548;52.130;5.428;2024-03-02T03:35:02;2.67;;;2.13;;
84655;SDS011;76548;52.130;5.428;2024-03-02T03:37:31;2.03;;;1.30;;
84655;SDS011;76548;52.130;5.428;2024-03-02T03:40:02;4.60;;;2.70;;
84655;SDS011;76548;52.130;5.428;2024-03-02T03:42:34;1.70;;;1.35;;
84655;SDS011;76548;52.130;5.428;2024-03-02T03:45:02;4.00;;;2.05;;
84655;SDS011;76548;52.130;5.428;2024-03-02T03:47:31;1.60;;;0.85;;
84655;SDS011;76548;52.130;5.428;2024-03-02T03:49:59;0.88;;;0.68;;
84655;SDS011;76548;52.130;5.428;2024-03-02T03:52:27;1.30;;;0.60;;
84655;SDS011;76548;52.130;5.428;2024-03-02T03:54:55;1.23;;;1.00;;
84655;SDS011;76548;52.130;5.428;2024-03-02T03:57:24;1.10;;;0.90;;
84655;SDS011;76548;52.130;5.428;2024-03-02T03:59:52;1.38;;;1.00;;
84655;SDS011;76548;52.130;5.428;2024-03-02T04:02:21;2.35;;;2.08;;
84655;SDS011;76548;52.130;5.428;2024-03-02T04:04:49;2.87;;;2.47;;
84655;SDS011;76548;52.130;5.428;2024-03-02T04:07:17;4.95;;;2.10;;
84655;SDS011;76548;52.130;5.428;2024-03-02T04:09:46;4.13;;;1.77;;
84655;SDS011;76548;52.130;5.428;2024-03-02T04:12:14;2.88;;;2.35;;
84655;SDS011;76548;52.130;5.428;2024-03-02T04:14:42;2.35;;;1.80;;
84655;SDS011;76548;52.130;5.428;2024-03-02T04:17:10;4.00;;;2.07;;
84655;SDS011;76548;52.130;5.428;2024-03-02T04:19:38;1.50;;;1.10;;
84655;SDS011;76548;52.130;5.428;2024-03-02T04:22:06;1.40;;;0.70;;
84655;SDS011;76548;52.130;5.428;2024-03-02T04:24:47;1.80;;;0.90;;
84655;SDS011;76548;52.130;5.428;2024-03-02T04:27:15;2.28;;;0.95;;
84655;SDS011;76548;52.130;5.428;2024-03-02T04:29:43;2.43;;;1.03;;
84655;SDS011;76548;52.130;5.428;2024-03-02T04:32:11;5.13;;;1.92;;
84655;SDS011;76548;52.130;5.428;2024-03-02T04:34:39;2.70;;;1.58;;
84655;SDS011;76548;52.130;5.428;2024-03-02T04:37:07;1.20;;;0.40;;
84655;SDS011;76548;52.130;5.428;2024-03-02T04:39:35;0.90;;;0.57;;
84655;SDS011;76548;52.130;5.428;2024-03-02T04:42:03;7.07;;;6.47;;
84655;SDS011;76548;52.130;5.428;2024-03-02T04:44:31;1.98;;;1.85;;
84655;SDS011;76548;52.130;5.428;2024-03-02T04:46:59;1.10;;;0.88;;
84655;SDS011;76548;52.130;5.428;2024-03-02T04:49:27;1.05;;;0.32;;
84655;SDS011;76548;52.130;5.428;2024-03-02T04:51:55;1.70;;;0.30;;
84655;SDS011;76548;52.130;5.428;2024-03-02T04:54:24;3.17;;;1.77;;
84655;SDS011;76548;52.130;5.428;2024-03-02T04:56:51;2.05;;;0.70;;
84655;SDS011;76548;52.130;5.428;2024-03-02T04:59:19;1.95;;;0.50;;
84655;SDS011;76548;52.130;5.428;2024-03-02T05:01:47;0.55;;;0.30;;
84655;SDS011;76548;52.130;5.428;2024-03-02T05:04:15;3.28;;;0.63;;
84655;SDS011;76548;52.130;5.428;2024-03-02T05:06:43;1.57;;;0.30;;
84655;SDS011;76548;52.130;5.428;2024-03-02T05:09:11;1.83;;;0.30;;
84655;SDS011;76548;52.130;5.428;2024-03-02T05:11:45;0.40;;;0.30;;
84655;SDS011;76548;52.130;5.428;2024-03-02T05:14:17;3.95;;;2.08;;
84655;SDS011;76548;52.130;5.428;2024-03-02T05:16:47;0.70;;;0.35;;
84655;SDS011;76548;52.130;5.428;2024-03-02T05:19:15;1.50;;;0.43;;
84655;SDS011;76548;52.130;5.428;2024-03-02T05:21:43;0.65;;;0.40;;
84655;SDS011;76548;52.130;5.428;2024-03-02T05:24:11;2.17;;;1.00;;
84655;SDS011;76548;52.130;5.428;2024-03-02T05:26:39;0.75;;;0.40;;
84655;SDS011;76548;52.130;5.428;2024-03-02T05:29:06;1.70;;;0.25;;
84655;SDS011;76548;52.130;5.428;2024-03-02T05:31:34;0.70;;;0.30;;
84655;SDS011;76548;52.130;5.428;2024-03-02T05:34:02;2.08;;;0.20;;
84655;SDS011;76548;52.130;5.428;2024-03-02T05:36:30;1.08;;;0.50;;
84655;SDS011;76548;52.130;5.428;2024-03-02T05:39:07;3.67;;;0.52;;
84655;SDS011;76548;52.130;5.428;2024-03-02T05:41:37;1.77;;;0.63;;
84655;SDS011;76548;52.130;5.428;2024-03-02T05:44:05;4.00;;;0.83;;
84655;SDS011;76548;52.130;5.428;2024-03-02T05:46:33;1.02;;;0.30;;
84655;SDS011;76548;52.130;5.428;2024-03-02T05:49:02;3.17;;;1.88;;
84655;SDS011;76548;52.130;5.428;2024-03-02T05:51:30;1.65;;;1.02;;
84655;SDS011;76548;52.130;5.428;2024-03-02T05:53:58;2.25;;;2.05;;
84655;SDS011;76548;52.130;5.428;2024-03-02T05:56:26;2.27;;;1.00;;
84655;SDS011;76548;52.130;5.428;2024-03-02T05:58:54;5.30;;;2.38;;
84655;SDS011;76548;52.130;5.428;2024-03-02T06:01:40;1.40;;;0.95;;
84655;SDS011;76548;52.130;5.428;2024-03-02T06:04:08;6.85;;;5.13;;
84655;SDS011;76548;52.130;5.428;2024-03-02T06:06:38;1.88;;;1.00;;
84655;SDS011;76548;52.130;5.428;2024-03-02T06:09:06;3.07;;;1.77;;
84655;SDS011;76548;52.130;5.428;2024-03-02T06:11:40;3.60;;;2.30;;
84655;SDS011;76548;52.130;5.428;2024-03-02T06:14:08;1.27;;;0.63;;
84655;SDS011;76548;52.130;5.428;2024-03-02T06:16:36;1.40;;;0.57;;
84655;SDS011;76548;52.130;5.428;2024-03-02T06:19:04;11.48;;;10.68;;
84655;SDS011;76548;52.130;5.428;2024-03-02T06:21:32;4.23;;;1.60;;
84655;SDS011;76548;52.130;5.428;2024-03-02T06:24:00;1.30;;;0.98;;
84655;SDS011;76548;52.130;5.428;2024-03-02T06:26:28;5.03;;;2.45;;
84655;SDS011;76548;52.130;5.428;2024-03-02T06:28:57;2.75;;;1.02;;
84655;SDS011;76548;52.130;5.428;2024-03-02T06:31:25;1.77;;;1.17;;
84655;SDS011;76548;52.130;5.428;2024-03-02T06:33:53;1.57;;;0.70;;
84655;SDS011;76548;52.130;5.428;2024-03-02T06:36:21;3.15;;;0.47;;
84655;SDS011;76548;52.130;5.428;2024-03-02T06:38:48;1.52;;;0.50;;
84655;SDS011;76548;52.130;5.428;2024-03-02T06:41:16;1.00;;;0.52;;
84655;SDS011;76548;52.130;5.428;2024-03-02T06:43:44;2.10;;;0.52;;
84655;SDS011;76548;52.130;5.428;2024-03-02T06:46:12;1.23;;;0.37;;
84655;SDS011;76548;52.130;5.428;2024-03-02T06:48:42;2.15;;;0.45;;
84655;SDS011;76548;52.130;5.428;2024-03-02T06:51:10;1.05;;;0.40;;
84655;SDS011;76548;52.130;5.428;2024-03-02T06:53:38;1.90;;;0.50;;
84655;SDS011;76548;52.130;5.428;2024-03-02T06:56:06;4.15;;;1.65;;
84655;SDS011;76548;52.130;5.428;2024-03-02T06:58:34;2.27;;;1.10;;
84655;SDS011;76548;52.130;5.428;2024-03-02T07:01:02;6.03;;;1.85;;
84655;SDS011;76548;52.130;5.428;2024-03-02T07:03:30;5.55;;;5.15;;
84655;SDS011;76548;52.130;5.428;2024-03-02T07:05:58;4.32;;;2.88;;
84655;SDS011;76548;52.130;5.428;2024-03-02T07:08:26;1.80;;;1.08;;
84655;SDS011;76548;52.130;5.428;2024-03-02T07:10:54;0.73;;;0.33;;
84655;SDS011;76548;52.130;5.428;2024-03-02T07:13:22;2.65;;;0.65;;
84655;SDS011;76548;52.130;5.428;2024-03-02T07:15:50;0.93;;;0.40;;
84655;SDS011;76548;52.130;5.428;2024-03-02T07:18:30;1.67;;;0.60;;
84655;SDS011;76548;52.130;5.428;2024-03-02T07:20:59;2.60;;;0.70;;
84655;SDS011;76548;52.130;5.428;2024-03-02T07:23:28;1.60;;;0.40;;
84655;SDS011;76548;52.130;5.428;2024-03-02T07:25:57;0.85;;;0.50;;
84655;SDS011;76548;52.130;5.428;2024-03-02T07:28:29;1.42;;;0.35;;
84655;SDS011;76548;52.130;5.428;2024-03-02T07:30:58;1.52;;;0.60;;
84655;SDS011;76548;52.130;5.428;2024-03-02T07:33:27;2.65;;;1.27;;
84655;SDS011;76548;52.130;5.428;2024-03-02T07:35:55;1.80;;;0.30;;
84655;SDS011;76548;52.130;5.428;2024-03-02T07:38:24;1.27;;;0.30;;
84655;SDS011;76548;52.130;5.428;2024-03-02T07:40:51;1.00;;;0.30;;
84655;SDS011;76548;52.130;5.428;2024-03-02T07:43:22;1.15;;;0.30;;
84655;SDS011;76548;52.130;5.428;2024-03-02T07:45:50;2.55;;;0.30;;
84655;SDS011;76548;52.130;5.428;2024-03-02T07:48:19;1.83;;;1.13;;
84655;SDS011;76548;52.130;5.428;2024-03-02T07:50:47;1.33;;;0.40;;
84655;SDS011;76548;52.130;5.428;2024-03-02T07:53:14;1.05;;;0.40;;
84655;SDS011;76548;52.130;5.428;2024-03-02T07:55:42;0.70;;;0.30;;
84655;SDS011;76548;52.130;5.428;2024-03-02T07:58:10;2.85;;;1.02;;
84655;SDS011;76548;52.130;5.428;2024-03-02T08:00:39;1.93;;;0.40;;
84655;SDS011;76548;52.130;5.428;2024-03-02T08:03:07;1.25;;;0.28;;
84655;SDS011;76548;52.130;5.428;2024-03-02T08:05:38;1.35;;;0.60;;
84655;SDS011;76548;52.130;5.428;2024-03-02T08:08:06;1.88;;;0.22;;
84655;SDS011;76548;52.130;5.428;2024-03-02T08:10:34;1.15;;;0.30;;
84655;SDS011;76548;52.130;5.428;2024-03-02T08:13:02;1.93;;;0.30;;
84655;SDS011;76548;52.130;5.428;2024-03-02T08:15:30;4.07;;;0.30;;
84655;SDS011;76548;52.130;5.428;2024-03-02T08:17:58;1.23;;;0.30;;
84655;SDS011;76548;52.130;5.428;2024-03-02T08:20:27;0.43;;;0.22;;
84655;SDS011;76548;52.130;5.428;2024-03-02T08:22:55;3.17;;;1.05;;
84655;SDS011;76548;52.130;5.428;2024-03-02T08:25:22;1.83;;;0.30;;
84655;SDS011;76548;52.130;5.428;2024-03-02T08:27:50;1.75;;;0.50;;
84655;SDS011;76548;52.130;5.428;2024-03-02T08:30:18;1.17;;;0.40;;
84655;SDS011;76548;52.130;5.428;2024-03-02T08:32:46;1.08;;;0.30;;
84655;SDS011;76548;52.130;5.428;2024-03-02T08:35:15;0.80;;;0.30;;
84655;SDS011;76548;52.130;5.428;2024-03-02T08:37:44;0.55;;;0.30;;
84655;SDS011;76548;52.130;5.428;2024-03-02T08:40:12;2.17;;;0.30;;
84655;SDS011;76548;52.130;5.428;2024-03-02T08:42:43;1.42;;;0.40;;
84655;SDS011;76548;52.130;5.428;2024-03-02T08:45:12;0.82;;;0.40;;
84655;SDS011;76548;52.130;5.428;2024-03-02T08:47:40;3.63;;;0.57;;
84655;SDS011;76548;52.130;5.428;2024-03-02T08:50:08;3.30;;;0.30;;
84655;SDS011;76548;52.130;5.428;2024-03-02T08:52:36;2.33;;;0.40;;
84655;SDS011;76548;52.130;5.428;2024-03-02T08:55:04;1.17;;;0.30;;
84655;SDS011;76548;52.130;5.428;2024-03-02T08:57:33;0.82;;;0.30;;
84655;SDS011;76548;52.130;5.428;2024-03-02T09:00:01;1.47;;;0.40;;
84655;SDS011;76548;52.130;5.428;2024-03-02T09:02:30;2.35;;;0.80;;
84655;SDS011;76548;52.130;5.428;2024-03-02T09:04:58;1.05;;;0.30;;
84655;SDS011;76548;52.130;5.428;2024-03-02T09:07:26;0.98;;;0.30;;
84655;SDS011;76548;52.130;5.428;2024-03-02T09:09:54;2.15;;;0.55;;
84655;SDS011;76548;52.130;5.428;2024-03-02T09:12:22;1.77;;;0.40;;
84655;SDS011;76548;52.130;5.428;2024-03-02T09:14:50;3.63;;;0.30;;
84655;SDS011;76548;52.130;5.428;2024-03-02T09:17:18;2.45;;;0.40;;
84655;SDS011;76548;52.130;5.428;2024-03-02T09:19:48;1.25;;;0.38;;
84655;SDS011;76548;52.130;5.428;2024-03-02T09:22:20;3.25;;;0.40;;
84655;SDS011;76548;52.130;5.428;2024-03-02T09:24:47;2.93;;;0.30;;
84655;SDS011;76548;52.130;5.428;2024-03-02T09:27:15;1.50;;;0.30;;
84655;SDS011;76548;52.130;5.428;2024-03-02T09:29:43;2.20;;;0.40;;
84655;SDS011;76548;52.130;5.428;2024-03-02T09:32:13;2.97;;;0.50;;
84655;SDS011;76548;52.130;5.428;2024-03-02T09:34:41;4.25;;;0.98;;
84655;SDS011;76548;52.130;5.428;2024-03-02T09:37:10;1.25;;;0.30;;
84655;SDS011;76548;52.130;5.428;2024-03-02T09:39:39;1.27;;;0.50;;
84655;SDS011;76548;52.130;5.428;2024-03-02T09:42:07;1.57;;;0.37;;
84655;SDS011;76548;52.130;5.428;2024-03-02T09:44:35;4.85;;;0.57;;
84655;SDS011;76548;52.130;5.428;2024-03-02T09:47:04;1.20;;;0.50;;
84655;SDS011;76548;52.130;5.428;2024-03-02T09:49:32;2.60;;;0.50;;
84655;SDS011;76548;52.130;5.428;2024-03-02T09:52:02;1.92;;;0.50;;
84655;SDS011;76548;52.130;5.428;2024-03-02T09:54:31;3.58;;;0.45;;
84655;SDS011;76548;52.130;5.428;2024-03-02T09:56:59;1.92;;;0.50;;
84655;SDS011;76548;52.130;5.428;2024-03-02T09:59:29;2.17;;;0.50;;
84655;SDS011;76548;52.130;5.428;2024-03-02T10:04:28;2.72;;;0.40;;
84655;SDS011;76548;52.130;5.428;2024-03-02T10:07:16;2.10;;;0.50;;
84655;SDS011;76548;52.130;5.428;2024-03-02T10:09:45;2.60;;;0.57;;
84655;SDS011;76548;52.130;5.428;2024-03-02T10:12:14;2.33;;;0.38;;
84655;SDS011;76548;52.130;5.428;2024-03-02T10:14:42;3.22;;;0.50;;
84655;SDS011;76548;52.130;5.428;2024-03-02T10:17:13;1.93;;;1.10;;
84655;SDS011;76548;52.130;5.428;2024-03-02T10:19:44;4.47;;;0.50;;
84655;SDS011;76548;52.130;5.428;2024-03-02T10:22:12;1.95;;;0.45;;
84655;SDS011;76548;52.130;5.428;2024-03-02T10:24:41;1.60;;;0.50;;
84655;SDS011;76548;52.130;5.428;2024-03-02T10:29:37;4.10;;;0.50;;
84655;SDS011;76548;52.130;5.428;2024-03-02T10:32:09;2.50;;;0.35;;
84655;SDS011;76548;52.130;5.428;2024-03-02T10:34:42;3.30;;;0.32;;
84655;SDS011;76548;52.130;5.428;2024-03-02T10:37:10;1.42;;;0.40;;
84655;SDS011;76548;52.130;5.428;2024-03-02T10:39:39;1.50;;;0.50;;
84655;SDS011;76548;52.130;5.428;2024-03-02T10:42:08;1.92;;;0.50;;
84655;SDS011;76548;52.130;5.428;2024-03-02T10:44:36;2.25;;;0.40;;
84655;SDS011;76548;52.130;5.428;2024-03-02T10:47:05;1.63;;;0.60;;
84655;SDS011;76548;52.130;5.428;2024-03-02T10:49:33;7.28;;;0.55;;
84655;SDS011;76548;52.130;5.428;2024-03-02T10:52:01;3.90;;;1.55;;
84655;SDS011;76548;52.130;5.428;2024-03-02T10:54:29;1.23;;;0.47;;
84655;SDS011;76548;52.130;5.428;2024-03-02T10:57:04;3.03;;;0.50;;
84655;SDS011;76548;52.130;5.428;2024-03-02T10:59:36;4.53;;;0.38;;
84655;SDS011;76548;52.130;5.428;2024-03-02T11:02:06;1.25;;;0.60;;
84655;SDS011;76548;52.130;5.428;2024-03-02T11:04:35;2.35;;;0.30;;
84655;SDS011;76548;52.130;5.428;2024-03-02T11:07:05;1.20;;;0.30;;
84655;SDS011;76548;52.130;5.428;2024-03-02T11:09:34;4.90;;;0.40;;
84655;SDS011;76548;52.130;5.428;2024-03-02T11:12:03;3.50;;;0.40;;
84655;SDS011;76548;52.130;5.428;2024-03-02T11:14:34;1.38;;;0.63;;
84655;SDS011;76548;52.130;5.428;2024-03-02T11:17:03;2.58;;;0.60;;
84655;SDS011;76548;52.130;5.428;2024-03-02T11:19:32;1.07;;;0.30;;
84655;SDS011;76548;52.130;5.428;2024-03-02T11:22:01;1.95;;;0.40;;
84655;SDS011;76548;52.130;5.428;2024-03-02T11:24:30;2.40;;;0.60;;
84655;SDS011;76548;52.130;5.428;2024-03-02T11:27:05;1.45;;;0.40;;
84655;SDS011;76548;52.130;5.428;2024-03-02T11:32:15;1.70;;;0.30;;
84655;SDS011;76548;52.130;5.428;2024-03-02T11:34:46;3.40;;;0.50;;
84655;SDS011;76548;52.130;5.428;2024-03-02T11:37:17;2.33;;;0.43;;
84655;SDS011;76548;52.130;5.428;2024-03-02T11:39:45;2.25;;;0.50;;
84655;SDS011;76548;52.130;5.428;2024-03-02T11:42:13;1.45;;;0.30;;
84655;SDS011;76548;52.130;5.428;2024-03-02T11:44:42;0.60;;;0.30;;
84655;SDS011;76548;52.130;5.428;2024-03-02T11:47:14;1.13;;;0.47;;
84655;SDS011;76548;52.130;5.428;2024-03-02T11:49:45;2.53;;;0.30;;
84655;SDS011;76548;52.130;5.428;2024-03-02T11:52:13;2.28;;;0.70;;
84655;SDS011;76548;52.130;5.428;2024-03-02T11:54:43;0.90;;;0.40;;
84655;SDS011;76548;52.130;5.428;2024-03-02T11:57:14;3.03;;;0.40;;
84655;SDS011;76548;52.130;5.428;2024-03-02T11:59:43;2.00;;;0.40;;
84655;SDS011;76548;52.130;5.428;2024-03-02T12:02:15;2.15;;;0.40;;
84655;SDS011;76548;52.130;5.428;2024-03-02T12:04:44;1.10;;;0.50;;
84655;SDS011;76548;52.130;5.428;2024-03-02T12:07:12;1.38;;;0.50;;
84655;SDS011;76548;52.130;5.428;2024-03-02T12:09:40;3.07;;;0.60;;
84655;SDS011;76548;52.130;5.428;2024-03-02T12:12:09;1.08;;;0.38;;
84655;SDS011;76548;52.130;5.428;2024-03-02T12:14:37;2.10;;;0.40;;
84655;SDS011;76548;52.130;5.428;2024-03-02T12:17:05;1.40;;;0.30;;
84655;SDS011;76548;52.130;5.428;2024-03-02T12:19:33;3.22;;;0.63;;
84655;SDS011;76548;52.130;5.428;2024-03-02T12:22:01;2.50;;;0.50;;
84655;SDS011;76548;52.130;5.428;2024-03-02T12:24:29;2.55;;;0.50;;
84655;SDS011;76548;52.130;5.428;2024-03-02T12:27:02;2.60;;;0.40;;
84655;SDS011;76548;52.130;5.428;2024-03-02T12:29:31;1.65;;;1.02;;
84655;SDS011;76548;52.130;5.428;2024-03-02T12:31:58;3.00;;;0.53;;
84655;SDS011;76548;52.130;5.428;2024-03-02T12:34:29;1.55;;;0.40;;
84655;SDS011;76548;52.130;5.428;2024-03-02T12:36:57;1.73;;;0.40;;
84655;SDS011;76548;52.130;5.428;2024-03-02T12:39:25;2.47;;;0.70;;
84655;SDS011;76548;52.130;5.428;2024-03-02T12:41:55;2.00;;;0.77;;
84655;SDS011;76548;52.130;5.428;2024-03-02T12:44:23;1.00;;;0.47;;
84655;SDS011;76548;52.130;5.428;2024-03-02T12:46:51;1.98;;;0.40;;
84655;SDS011;76548;52.130;5.428;2024-03-02T12:49:25;2.63;;;0.40;;
84655;SDS011;76548;52.130;5.428;2024-03-02T12:51:54;2.38;;;0.60;;
84655;SDS011;76548;52.130;5.428;2024-03-02T12:54:25;1.70;;;0.45;;
84655;SDS011;76548;52.130;5.428;2024-03-02T12:56:54;1.20;;;0.30;;
84655;SDS011;76548;52.130;5.428;2024-03-02T12:59:24;1.17;;;0.47;;
84655;SDS011;76548;52.130;5.428;2024-03-02T13:01:54;1.17;;;0.40;;
84655;SDS011;76548;52.130;5.428;2024-03-02T13:04:24;1.38;;;0.40;;
84655;SDS011;76548;52.130;5.428;2024-03-02T13:06:55;1.65;;;0.35;;
84655;SDS011;76548;52.130;5.428;2024-03-02T13:09:25;2.80;;;0.50;;
84655;SDS011;76548;52.130;5.428;2024-03-02T13:11:55;1.38;;;0.50;;
84655;SDS011;76548;52.130;5.428;2024-03-02T13:14:24;2.87;;;0.50;;
84655;SDS011;76548;52.130;5.428;2024-03-02T13:16:53;1.52;;;0.60;;
84655;SDS011;76548;52.130;5.428;2024-03-02T13:19:21;3.50;;;0.70;;
84655;SDS011;76548;52.130;5.428;2024-03-02T13:21:49;1.25;;;0.38;;
84655;SDS011;76548;52.130;5.428;2024-03-02T13:24:18;1.67;;;0.30;;
84655;SDS011;76548;52.130;5.428;2024-03-02T13:26:47;2.80;;;0.50;;
84655;SDS011;76548;52.130;5.428;2024-03-02T13:29:15;2.05;;;0.52;;
84655;SDS011;76548;52.130;5.428;2024-03-02T13:31:42;2.87;;;0.63;;
84655;SDS011;76548;52.130;5.428;2024-03-02T13:34:10;1.63;;;0.43;;
84655;SDS011;76548;52.130;5.428;2024-03-02T13:36:39;2.55;;;0.30;;
84655;SDS011;76548;52.130;5.428;2024-03-02T13:39:07;5.07;;;0.47;;
84655;SDS011;76548;52.130;5.428;2024-03-02T13:41:42;1.90;;;0.40;;
84655;SDS011;76548;52.130;5.428;2024-03-02T13:44:19;1.17;;;0.50;;
84655;SDS011;76548;52.130;5.428;2024-03-02T13:46:47;3.03;;;0.50;;
84655;SDS011;76548;52.130;5.428;2024-03-02T13:49:15;6.18;;;0.70;;
84655;SDS011;76548;52.130;5.428;2024-03-02T13:51:43;2.47;;;0.50;;
84655;SDS011;76548;52.130;5.428;2024-03-02T13:54:12;6.60;;;0.52;;
84655;SDS011;76548;52.130;5.428;2024-03-02T13:56:40;1.23;;;0.40;;
84655;SDS011;76548;52.130;5.428;2024-03-02T13:59:08;1.60;;;0.50;;
84655;SDS011;76548;52.130;5.428;2024-03-02T14:01:36;1.05;;;0.40;;
84655;SDS011;76548;52.130;5.428;2024-03-02T14:04:04;3.33;;;0.40;;
84655;SDS011;76548;52.130;5.428;2024-03-02T14:06:32;1.70;;;0.60;;
84655;SDS011;76548;52.130;5.428;2024-03-02T14:09:00;2.90;;;0.50;;
84655;SDS011;76548;52.130;5.428;2024-03-02T14:11:30;3.03;;;0.55;;
84655;SDS011;76548;52.130;5.428;2024-03-02T14:13:59;1.65;;;0.38;;
84655;SDS011;76548;52.130;5.428;2024-03-02T14:16:27;3.10;;;0.60;;
84655;SDS011;76548;52.130;5.428;2024-03-02T14:18:54;2.40;;;0.50;;
84655;SDS011;76548;52.130;5.428;2024-03-02T14:21:23;3.10;;;0.57;;
84655;SDS011;76548;52.130;5.428;2024-03-02T14:23:51;2.35;;;0.70;;
84655;SDS011;76548;52.130;5.428;2024-03-02T14:26:19;2.65;;;0.50;;
84655;SDS011;76548;52.130;5.428;2024-03-02T14:28:47;1.90;;;0.80;;
84655;SDS011;76548;52.130;5.428;2024-03-02T14:31:18;1.77;;;0.47;;
84655;SDS011;76548;52.130;5.428;2024-03-02T14:33:47;1.33;;;0.50;;
84655;SDS011;76548;52.130;5.428;2024-03-02T14:36:15;2.40;;;0.50;;
84655;SDS011;76548;52.130;5.428;2024-03-02T14:38:43;2.03;;;0.60;;
84655;SDS011;76548;52.130;5.428;2024-03-02T14:41:12;1.80;;;0.52;;
84655;SDS011;76548;52.130;5.428;2024-03-02T14:43:40;6.70;;;0.50;;
84655;SDS011;76548;52.130;5.428;2024-03-02T14:46:08;1.55;;;0.50;;
84655;SDS011;76548;52.130;5.428;2024-03-02T14:48:37;1.90;;;0.90;;
84655;SDS011;76548;52.130;5.428;2024-03-02T14:51:05;0.93;;;0.43;;
84655;SDS011;76548;52.130;5.428;2024-03-02T14:53:33;1.98;;;0.30;;
84655;SDS011;76548;52.130;5.428;2024-03-02T14:56:01;1.47;;;0.40;;
84655;SDS011;76548;52.130;5.428;2024-03-02T14:58:29;0.85;;;0.40;;
84655;SDS011;76548;52.130;5.428;2024-03-02T15:00:56;1.88;;;0.50;;
84655;SDS011;76548;52.130;5.428;2024-03-02T15:03:25;2.22;;;0.40;;
84655;SDS011;76548;52.130;5.428;2024-03-02T15:05:53;2.03;;;0.60;;
84655;SDS011;76548;52.130;5.428;2024-03-02T15:08:21;1.73;;;0.30;;
84655;SDS011;76548;52.130;5.428;2024-03-02T15:10:49;1.95;;;0.40;;